createdAt,value
2022-09-03T00:00:44.614Z,17.1
2022-09-03T00:01:44.078Z,17.2
2022-09-03T00:02:44.124Z,17.2
2022-09-03T00:03:44.120Z,17.2
2022-09-03T00:04:44.178Z,17.1
2022-09-03T00:05:44.228Z,17.1
2022-09-03T00:06:44.578Z,17
2022-09-03T00:07:44.681Z,17
2022-09-03T00:08:44.691Z,17
2022-09-03T00:09:56.311Z,16.9
2022-09-03T00:10:56.406Z,16.9
2022-09-03T00:11:56.433Z,17
2022-09-03T00:12:56.496Z,16.9
2022-09-03T00:13:56.573Z,17
2022-09-03T00:14:56.625Z,17.1
2022-09-03T00:15:56.919Z,17.2
2022-09-03T00:16:56.727Z,17.2
2022-09-03T00:17:56.779Z,17
2022-09-03T00:18:57.041Z,17
2022-09-03T00:19:57.272Z,17
2022-09-03T00:20:56.987Z,17.1
2022-09-03T00:21:57.029Z,16.9
2022-09-03T00:22:57.165Z,16.8
2022-09-03T00:23:57.223Z,16.8
2022-09-03T00:24:57.255Z,16.9
2022-09-03T00:25:57.657Z,17
2022-09-03T00:26:57.358Z,17
2022-09-03T00:27:57.412Z,16.9
2022-09-03T00:28:58.791Z,16.9
2022-09-03T00:29:57.555Z,16.8
2022-09-03T00:30:57.627Z,16.8
2022-09-03T00:31:57.655Z,16.9
2022-09-03T00:32:57.719Z,16.8
2022-09-03T00:33:57.792Z,16.8
2022-09-03T00:34:58.138Z,16.9
2022-09-03T00:35:58.151Z,16.9
2022-09-03T00:36:58.107Z,16.8
2022-09-03T00:37:58.134Z,16.9
2022-09-03T00:38:58.302Z,16.8
2022-09-03T00:39:58.323Z,17
2022-09-03T00:40:58.278Z,16.8
2022-09-03T00:41:58.392Z,16.8
2022-09-03T00:42:58.350Z,16.8
2022-09-03T00:43:58.403Z,16.9
2022-09-03T00:44:58.470Z,16.9
2022-09-03T00:45:58.545Z,16.9
2022-09-03T00:46:58.620Z,17
2022-09-03T00:47:58.678Z,16.8
2022-09-03T00:48:58.899Z,16.7
2022-09-03T00:49:58.734Z,16.7
2022-09-03T00:50:58.942Z,16.8
2022-09-03T00:51:58.857Z,16.8
2022-09-03T00:52:58.892Z,16.8
2022-09-03T00:53:58.930Z,16.8
2022-09-03T00:54:58.989Z,16.7
2022-09-03T00:55:59.050Z,16.7
2022-09-03T00:56:59.170Z,16.8
2022-09-03T00:57:59.192Z,16.8
2022-09-03T00:58:59.211Z,16.8
2022-09-03T00:59:59.571Z,17
2022-09-03T01:00:59.561Z,16.9
2022-09-03T01:01:59.508Z,16.8
2022-09-03T01:02:59.426Z,16.7
2022-09-03T01:03:59.660Z,16.8
2022-09-03T01:04:59.790Z,16.7
2022-09-03T01:06:01.628Z,16.8
2022-09-03T01:06:59.680Z,16.8
2022-09-03T01:07:59.752Z,16.6
2022-09-03T01:09:00.174Z,16.6
2022-09-03T01:09:59.815Z,16.6
2022-09-03T01:10:59.899Z,16.6
2022-09-03T01:12:00.232Z,16.6
2022-09-03T01:13:00.002Z,16.6
2022-09-03T01:14:00.158Z,16.6
2022-09-03T01:15:00.339Z,16.5
2022-09-03T01:16:00.266Z,16.5
2022-09-03T01:17:00.197Z,16.6
2022-09-03T01:18:00.253Z,16.5
2022-09-03T01:19:00.312Z,16.5
2022-09-03T01:20:00.360Z,16.5
2022-09-03T01:21:00.523Z,16.5
2022-09-03T01:22:00.497Z,16.6
2022-09-03T01:23:00.542Z,16.6
2022-09-03T01:24:00.589Z,16.5
2022-09-03T01:25:00.645Z,16.6
2022-09-03T01:26:00.983Z,16.5
2022-09-03T01:27:01.256Z,16.4
2022-09-03T01:28:00.805Z,16.5
2022-09-03T01:29:00.853Z,16.5
2022-09-03T01:30:00.924Z,16.5
2022-09-03T01:31:01.012Z,16.4
2022-09-03T01:32:01.003Z,16.5
2022-09-03T01:33:01.025Z,16.5
2022-09-03T01:34:01.085Z,16.7
2022-09-03T01:35:01.158Z,16.5
2022-09-03T01:36:01.212Z,16.4
2022-09-03T01:37:01.252Z,16.3
2022-09-03T01:38:01.568Z,16.4
2022-09-03T01:39:01.360Z,16.5
2022-09-03T01:40:01.445Z,16.5
2022-09-03T01:41:01.465Z,16.4
2022-09-03T01:42:01.494Z,16.4
2022-09-03T01:43:01.597Z,16.4
2022-09-03T01:44:01.605Z,16.4
2022-09-03T01:45:01.658Z,16.4
2022-09-03T01:46:01.751Z,16.4
2022-09-03T01:47:01.992Z,16.5
2022-09-03T01:48:01.995Z,16.4
2022-09-03T01:49:01.819Z,16.5
2022-09-03T01:50:01.835Z,16.5
2022-09-03T01:51:02.149Z,16.5
2022-09-03T01:52:02.228Z,16.3
2022-09-03T01:53:02.191Z,16.3
2022-09-03T01:54:02.089Z,16.3
2022-09-03T01:55:02.235Z,16.3
2022-09-03T01:56:02.175Z,16.2
2022-09-03T01:57:02.207Z,16.3
2022-09-03T01:58:02.236Z,16.4
2022-09-03T01:59:02.311Z,16.4
2022-09-03T02:00:02.374Z,16.4
2022-09-03T02:01:02.471Z,16.3
2022-09-03T02:02:02.742Z,16.3
2022-09-03T02:03:02.584Z,16.3
2022-09-03T02:04:03.032Z,16.3
2022-09-03T02:05:02.783Z,16.3
2022-09-03T02:06:02.850Z,16.3
2022-09-03T02:07:02.677Z,16.3
2022-09-03T02:08:02.907Z,16.3
2022-09-03T02:09:02.882Z,16.3
2022-09-03T02:10:02.818Z,16.2
2022-09-03T02:11:02.898Z,16.3
2022-09-03T02:12:03.075Z,16.3
2022-09-03T02:13:02.993Z,16.2
2022-09-03T02:14:03.043Z,16.2
2022-09-03T02:15:03.112Z,16.1
2022-09-03T02:16:03.259Z,16.2
2022-09-03T02:17:03.243Z,16.2
2022-09-03T02:18:03.270Z,16.3
2022-09-03T02:19:03.334Z,16.3
2022-09-03T02:20:03.658Z,16.2
2022-09-03T02:21:03.580Z,16.2
2022-09-03T02:22:03.544Z,16.4
2022-09-03T02:23:03.739Z,16.3
2022-09-03T02:24:03.661Z,16.2
2022-09-03T02:25:03.937Z,16.2
2022-09-03T02:26:03.762Z,16.2
2022-09-03T02:27:03.812Z,16.3
2022-09-03T02:28:03.860Z,16.1
2022-09-03T02:29:03.919Z,16.2
2022-09-03T02:30:04.202Z,16.2
2022-09-03T02:31:04.101Z,16.1
2022-09-03T02:32:04.099Z,16.1
2022-09-03T02:33:04.193Z,16.1
2022-09-03T02:34:04.194Z,16.1
2022-09-03T02:35:04.254Z,16.1
2022-09-03T02:36:04.340Z,15.9
2022-09-03T02:37:04.679Z,16.1
2022-09-03T02:38:04.513Z,16.2
2022-09-03T02:39:04.816Z,16.2
2022-09-03T02:40:04.615Z,16.1
2022-09-03T02:41:04.648Z,16.2
2022-09-03T02:42:04.694Z,16.1
2022-09-03T02:43:04.754Z,16
2022-09-03T02:44:04.804Z,16
2022-09-03T02:45:04.903Z,16.1
2022-09-03T02:46:05.000Z,15.9
2022-09-03T02:47:05.292Z,15.9
2022-09-03T02:48:05.042Z,15.9
2022-09-03T02:49:05.115Z,15.9
2022-09-03T02:50:05.176Z,16
2022-09-03T02:51:07.979Z,16
2022-09-03T02:52:05.323Z,16
2022-09-03T02:53:05.406Z,16
2022-09-03T02:54:05.469Z,16
2022-09-03T02:55:05.518Z,16
2022-09-03T02:56:06.077Z,15.9
2022-09-03T02:57:05.970Z,15.7
2022-09-03T02:58:05.720Z,15.8
2022-09-03T02:59:05.802Z,15.8
2022-09-03T03:00:05.966Z,15.9
2022-09-03T03:01:06.225Z,15.9
2022-09-03T03:02:06.060Z,15.9
2022-09-03T03:03:06.250Z,15.9
2022-09-03T03:04:06.099Z,15.8
2022-09-03T03:05:06.179Z,15.7
2022-09-03T03:06:06.395Z,15.8
2022-09-03T03:07:06.486Z,15.9
2022-09-03T03:08:06.635Z,15.9
2022-09-03T03:09:06.451Z,15.9
2022-09-03T03:10:06.645Z,15.9
2022-09-03T03:11:06.886Z,15.8
2022-09-03T03:12:06.956Z,15.8
2022-09-03T03:13:07.015Z,15.8
2022-09-03T03:14:07.082Z,15.8
2022-09-03T03:15:07.137Z,15.9
2022-09-03T03:16:07.479Z,16.1
2022-09-03T03:17:07.485Z,16.1
2022-09-03T03:18:07.565Z,16.1
2022-09-03T03:19:07.367Z,16
2022-09-03T03:20:07.426Z,15.9
2022-09-03T03:21:07.524Z,15.9
2022-09-03T03:22:07.574Z,15.9
2022-09-03T03:23:07.655Z,15.9
2022-09-03T03:24:07.714Z,15.9
2022-09-03T03:25:07.798Z,15.9
2022-09-03T03:26:07.856Z,15.9
2022-09-03T03:27:08.013Z,16
2022-09-03T03:28:07.968Z,16.1
2022-09-03T03:29:08.055Z,16.2
2022-09-03T03:30:08.212Z,16.3
2022-09-03T03:31:08.268Z,16.2
2022-09-03T03:32:08.267Z,16.2
2022-09-03T03:33:08.351Z,16.2
2022-09-03T03:34:08.695Z,16
2022-09-03T03:35:08.521Z,16
2022-09-03T03:36:08.548Z,16
2022-09-03T03:37:08.621Z,15.9
2022-09-03T03:38:08.709Z,16
2022-09-03T03:39:11.194Z,16
2022-09-03T03:40:08.803Z,16
2022-09-03T03:41:08.918Z,16
2022-09-03T03:42:09.280Z,15.9
2022-09-03T03:43:22.759Z,15.9
2022-09-03T03:44:31.354Z,15.9
2022-09-03T03:45:22.219Z,16
2022-09-03T03:46:09.274Z,16.1
2022-09-03T03:48:20.167Z,16
2022-09-03T03:48:20.209Z,16
2022-09-03T03:49:40.601Z,15.9
2022-09-03T03:51:39.785Z,16
2022-09-03T03:51:40.418Z,16
2022-09-03T03:52:27.260Z,16.1
2022-09-03T03:54:07.917Z,15.9
2022-09-03T03:55:10.271Z,16
2022-09-03T03:55:20.552Z,16
2022-09-03T03:56:10.069Z,16
2022-09-03T03:57:10.085Z,16
2022-09-03T03:58:10.185Z,15.8
2022-09-03T03:59:10.327Z,15.8
2022-09-03T04:00:10.205Z,15.8
2022-09-03T04:01:10.997Z,15.9
2022-09-03T04:02:10.499Z,15.9
2022-09-03T04:03:10.491Z,15.8
2022-09-03T04:04:10.502Z,15.9
2022-09-03T04:05:10.588Z,16
2022-09-03T04:06:10.656Z,16.1
2022-09-03T04:07:10.975Z,16
2022-09-03T04:08:10.845Z,16
2022-09-03T04:09:10.914Z,15.9
2022-09-03T04:10:10.973Z,15.8
2022-09-03T04:11:11.052Z,15.8
2022-09-03T04:12:11.105Z,15.8
2022-09-03T04:13:11.198Z,15.9
2022-09-03T04:14:11.228Z,15.8
2022-09-03T04:15:11.381Z,15.8
2022-09-03T04:16:11.434Z,15.8
2022-09-03T04:17:11.476Z,15.7
2022-09-03T04:18:11.510Z,15.7
2022-09-03T04:19:11.711Z,15.8
2022-09-03T04:20:11.858Z,15.8
2022-09-03T04:21:11.750Z,15.8
2022-09-03T04:22:12.149Z,15.8
2022-09-03T04:23:11.901Z,15.8
2022-09-03T04:24:12.027Z,15.8
2022-09-03T04:25:12.761Z,15.8
2022-09-03T04:26:12.300Z,15.9
2022-09-03T04:27:12.124Z,16
2022-09-03T04:28:12.371Z,15.8
2022-09-03T04:29:12.521Z,15.8
2022-09-03T04:31:27.802Z,15.9
2022-09-03T04:32:12.763Z,16
2022-09-03T04:33:15.883Z,16
2022-09-03T04:34:12.591Z,15.9
2022-09-03T04:35:12.622Z,15.9
2022-09-03T04:36:12.722Z,15.8
2022-09-03T04:37:12.778Z,15.8
2022-09-03T04:38:12.953Z,15.8
2022-09-03T04:39:12.894Z,15.8
2022-09-03T04:40:12.955Z,15.7
2022-09-03T04:41:13.053Z,15.7
2022-09-03T04:42:13.119Z,15.7
2022-09-03T04:43:13.204Z,15.8
2022-09-03T04:44:13.273Z,15.8
2022-09-03T04:45:13.317Z,15.8
2022-09-03T04:46:14.519Z,15.8
2022-09-03T04:47:13.581Z,15.8
2022-09-03T04:48:13.867Z,15.8
2022-09-03T04:49:13.584Z,15.8
2022-09-03T04:50:13.679Z,15.9
2022-09-03T04:51:13.731Z,15.8
2022-09-03T04:52:13.957Z,15.7
2022-09-03T04:53:13.915Z,15.8
2022-09-03T04:54:14.023Z,15.8
2022-09-03T04:55:14.207Z,15.9
2022-09-03T04:56:14.129Z,15.8
2022-09-03T04:57:14.299Z,15.9
2022-09-03T04:58:14.213Z,15.9
2022-09-03T04:59:14.348Z,16
2022-09-03T05:00:14.355Z,15.9
2022-09-03T05:01:14.413Z,15.9
2022-09-03T05:02:14.582Z,15.9
2022-09-03T05:03:14.589Z,15.9
2022-09-03T05:04:14.719Z,15.8
2022-09-03T05:05:14.806Z,15.8
2022-09-03T05:06:15.102Z,15.8
2022-09-03T05:07:14.908Z,15.9
2022-09-03T05:08:20.007Z,16
2022-09-03T05:09:15.306Z,15.9
2022-09-03T05:10:15.446Z,16
2022-09-03T05:11:28.972Z,15.9
2022-09-03T05:12:15.362Z,15.9
2022-09-03T05:13:15.466Z,16
2022-09-03T05:14:17.003Z,16.1
2022-09-03T05:15:15.507Z,16
2022-09-03T05:16:15.539Z,16
2022-09-03T05:17:15.668Z,15.9
2022-09-03T05:18:15.734Z,15.9
2022-09-03T05:19:15.604Z,15.8
2022-09-03T05:20:15.908Z,15.9
2022-09-03T05:21:15.736Z,15.9
2022-09-03T05:22:16.200Z,15.9
2022-09-03T05:23:15.876Z,15.9
2022-09-03T05:24:16.012Z,15.8
2022-09-03T05:25:16.324Z,15.9
2022-09-03T05:26:16.033Z,15.9
2022-09-03T05:27:16.062Z,16
2022-09-03T05:28:16.180Z,16
2022-09-03T05:29:16.275Z,15.9
2022-09-03T05:30:16.208Z,15.9
2022-09-03T05:31:16.136Z,15.9
2022-09-03T05:32:16.236Z,15.9
2022-09-03T05:33:16.471Z,15.9
2022-09-03T05:34:18.414Z,15.9
2022-09-03T05:35:16.533Z,16
2022-09-03T05:36:16.490Z,16
2022-09-03T05:37:16.454Z,16
2022-09-03T05:38:16.722Z,16.1
2022-09-03T05:39:16.563Z,16
2022-09-03T05:40:16.846Z,16
2022-09-03T05:41:16.932Z,16
2022-09-03T05:42:16.738Z,16
2022-09-03T05:43:16.754Z,16
2022-09-03T05:44:16.872Z,16
2022-09-03T05:45:16.959Z,16.1
2022-09-03T05:46:16.945Z,16.1
2022-09-03T05:47:17.263Z,16.1
2022-09-03T05:48:17.135Z,16.2
2022-09-03T05:49:17.160Z,16.1
2022-09-03T05:50:17.188Z,16.1
2022-09-03T05:51:17.244Z,16.1
2022-09-03T05:52:17.574Z,16.1
2022-09-03T05:53:17.417Z,16.1
2022-09-03T05:54:17.576Z,16.2
2022-09-03T05:55:17.545Z,16.3
2022-09-03T05:56:17.733Z,16.3
2022-09-03T05:57:17.686Z,16.1
2022-09-03T05:58:17.953Z,16.1
2022-09-03T05:59:17.795Z,16.1
2022-09-03T06:00:18.142Z,16.2
2022-09-03T06:01:17.922Z,16.3
2022-09-03T06:02:18.168Z,16.3
2022-09-03T06:03:18.291Z,16.2
2022-09-03T06:04:18.143Z,16.2
2022-09-03T06:05:18.240Z,16.2
2022-09-03T06:06:18.274Z,16.4
2022-09-03T06:07:18.353Z,16.4
2022-09-03T06:08:18.422Z,16.4
2022-09-03T06:09:18.497Z,16.3
2022-09-03T06:10:22.413Z,16.4
2022-09-03T06:11:18.628Z,16.4
2022-09-03T06:12:18.718Z,16.4
2022-09-03T06:13:19.085Z,16.4
2022-09-03T06:14:19.140Z,16.4
2022-09-03T06:15:18.954Z,16.4
2022-09-03T06:16:19.050Z,16.3
2022-09-03T06:17:19.100Z,16.5
2022-09-03T06:18:19.297Z,16.5
2022-09-03T06:19:20.736Z,16.6
2022-09-03T06:20:19.301Z,16.5
2022-09-03T06:21:19.372Z,16.4
2022-09-03T06:22:19.499Z,16.4
2022-09-03T06:23:19.513Z,16.4
2022-09-03T06:24:19.575Z,16.4
2022-09-03T06:25:19.655Z,16.4
2022-09-03T06:26:33.835Z,16.4
2022-09-03T06:27:25.924Z,16.4
2022-09-03T06:28:23.160Z,16.4
2022-09-03T06:29:19.939Z,16.4
2022-09-03T06:30:31.630Z,16.4
2022-09-03T06:31:20.183Z,16.4
2022-09-03T06:32:20.395Z,16.5
2022-09-03T06:33:20.576Z,16.5
2022-09-03T06:34:20.574Z,16.6
2022-09-03T06:35:20.447Z,16.6
2022-09-03T06:36:20.574Z,16.7
2022-09-03T06:37:20.485Z,16.6
2022-09-03T06:38:20.577Z,16.6
2022-09-03T06:39:20.794Z,16.7
2022-09-03T06:40:21.012Z,16.8
2022-09-03T06:41:20.768Z,16.7
2022-09-03T06:42:21.176Z,16.6
2022-09-03T06:43:21.405Z,16.6
2022-09-03T06:44:20.987Z,16.6
2022-09-03T06:45:21.059Z,16.8
2022-09-03T06:46:21.117Z,16.8
2022-09-03T06:47:24.120Z,16.6
2022-09-03T06:48:21.249Z,16.7
2022-09-03T06:49:21.487Z,16.8
2022-09-03T06:50:21.341Z,16.7
2022-09-03T06:51:21.436Z,16.7
2022-09-03T06:52:21.443Z,16.8
2022-09-03T06:53:21.682Z,17
2022-09-03T06:54:21.587Z,17.2
2022-09-03T06:55:21.692Z,17.4
2022-09-03T06:56:21.717Z,17.5
2022-09-03T06:57:21.783Z,17.5
2022-09-03T06:58:22.079Z,17.5
2022-09-03T06:59:22.126Z,17.5
2022-09-03T07:00:22.115Z,17.5
2022-09-03T07:01:22.202Z,17.6
2022-09-03T07:02:22.461Z,17.6
2022-09-03T07:03:22.315Z,17.7
2022-09-03T07:04:22.246Z,17.8
2022-09-03T07:05:22.399Z,17.7
2022-09-03T07:06:22.639Z,17.5
2022-09-03T07:07:22.469Z,17.5
2022-09-03T07:08:22.537Z,17.6
2022-09-03T07:09:22.612Z,17.7
2022-09-03T07:10:22.750Z,18
2022-09-03T07:11:22.718Z,18
2022-09-03T07:12:22.937Z,18.1
2022-09-03T07:13:22.946Z,18
2022-09-03T07:14:23.242Z,18
2022-09-03T07:15:23.008Z,18.1
2022-09-03T07:16:23.059Z,18.1
2022-09-03T07:17:23.097Z,18.2
2022-09-03T07:18:23.225Z,18.2
2022-09-03T07:19:23.250Z,18.3
2022-09-03T07:20:23.348Z,18.4
2022-09-03T07:21:25.402Z,18.4
2022-09-03T07:22:23.466Z,18.4
2022-09-03T07:23:23.517Z,18.5
2022-09-03T07:24:23.591Z,18.4
2022-09-03T07:25:23.666Z,18.4
2022-09-03T07:26:23.747Z,18.4
2022-09-03T07:27:24.156Z,18.4
2022-09-03T07:28:24.230Z,18.3
2022-09-03T07:29:24.235Z,18.1
2022-09-03T07:30:24.800Z,18.2
2022-09-03T07:31:26.144Z,18.2
2022-09-03T07:32:24.726Z,18.3
2022-09-03T07:33:26.008Z,18.4
2022-09-03T07:34:26.384Z,18.5
2022-09-03T07:35:24.416Z,18.3
2022-09-03T07:36:24.472Z,18.1
2022-09-03T07:37:25.575Z,18
2022-09-03T07:38:24.815Z,17.9
2022-09-03T07:39:24.810Z,17.9
2022-09-03T07:40:24.772Z,17.7
2022-09-03T07:41:28.605Z,17.7
2022-09-03T07:42:28.716Z,17.6
2022-09-03T07:43:33.036Z,17.7
2022-09-03T07:44:27.986Z,17.7
2022-09-03T07:45:28.739Z,17.8
2022-09-03T07:46:28.057Z,17.8
2022-09-03T07:47:27.906Z,17.9
2022-09-03T07:48:28.011Z,17.9
2022-09-03T07:49:28.489Z,17.8
2022-09-03T07:50:28.058Z,17.7
2022-09-03T07:51:28.184Z,17.6
2022-09-03T07:52:28.586Z,17.6
2022-09-03T07:53:28.255Z,17.6
2022-09-03T07:54:28.351Z,17.7
2022-09-03T07:55:28.853Z,17.8
2022-09-03T07:56:28.751Z,17.7
2022-09-03T07:57:28.582Z,17.8
2022-09-03T07:58:31.036Z,17.8
2022-09-03T07:59:28.684Z,17.7
2022-09-03T08:00:28.806Z,17.6
2022-09-03T08:01:28.916Z,17.7
2022-09-03T08:02:28.823Z,17.6
2022-09-03T08:03:28.931Z,17.6
2022-09-03T08:04:31.582Z,17.6
2022-09-03T08:05:29.024Z,17.5
2022-09-03T08:06:29.099Z,17.6
2022-09-03T08:07:34.672Z,17.5
2022-09-03T08:08:31.227Z,17.6
2022-09-03T08:09:29.285Z,17.5
2022-09-03T08:10:34.174Z,17.5
2022-09-03T08:11:29.429Z,17.6
2022-09-03T08:12:29.515Z,17.6
2022-09-03T08:13:35.083Z,17.5
2022-09-03T08:14:29.992Z,17.6
2022-09-03T08:15:29.705Z,17.6
2022-09-03T08:16:32.016Z,17.6
2022-09-03T08:17:29.854Z,17.5
2022-09-03T08:18:29.968Z,17.5
2022-09-03T08:19:32.993Z,17.5
2022-09-03T08:20:30.176Z,17.5
2022-09-03T08:21:30.127Z,17.5
2022-09-03T08:22:31.086Z,17.5
2022-09-03T08:23:30.290Z,17.6
2022-09-03T08:24:30.340Z,17.6
2022-09-03T08:25:31.420Z,17.5
2022-09-03T08:26:30.749Z,17.6
2022-09-03T08:27:30.521Z,17.6
2022-09-03T08:28:33.928Z,17.6
2022-09-03T08:29:30.712Z,17.6
2022-09-03T08:30:30.957Z,17.5
2022-09-03T08:31:34.710Z,17.5
2022-09-03T08:32:30.872Z,17.6
2022-09-03T08:33:30.957Z,17.5
2022-09-03T08:34:31.838Z,17.5
2022-09-03T08:35:31.047Z,17.6
2022-09-03T08:36:31.374Z,17.5
2022-09-03T08:37:35.988Z,17.4
2022-09-03T08:38:31.347Z,17.4
2022-09-03T08:39:31.402Z,17.3
2022-09-03T08:40:36.476Z,17.4
2022-09-03T08:41:40.388Z,17.4
2022-09-03T08:42:38.910Z,17.4
2022-09-03T08:43:44.724Z,17.4
2022-09-03T08:44:39.108Z,17.5
2022-09-03T08:45:39.066Z,17.5
2022-09-03T08:48:14.763Z,17.4
2022-09-03T08:48:39.425Z,17.4
2022-09-03T08:49:39.392Z,17.4
2022-09-03T08:50:39.366Z,17.3
2022-09-03T08:51:39.562Z,17.2
2022-09-03T08:52:39.839Z,17.1
2022-09-03T08:53:39.588Z,17
2022-09-03T08:54:39.826Z,17
2022-09-03T08:55:39.681Z,17
2022-09-03T08:56:39.927Z,17
2022-09-03T08:57:39.781Z,17.1
2022-09-03T08:58:39.869Z,17.1
2022-09-03T08:59:40.238Z,17.1
2022-09-03T09:00:40.048Z,17.2
2022-09-03T09:01:40.071Z,17.3
2022-09-03T09:02:40.260Z,17.2
2022-09-03T09:03:40.245Z,17.2
2022-09-03T09:04:40.204Z,17.2
2022-09-03T09:05:40.244Z,17.2
2022-09-03T09:06:40.290Z,17.3
2022-09-03T09:07:40.606Z,17.3
2022-09-03T09:08:40.384Z,17.3
2022-09-03T09:09:40.381Z,17.3
2022-09-03T09:10:40.493Z,17.3
2022-09-03T09:12:11.847Z,17.3
2022-09-03T09:14:42.072Z,17.5
2022-09-03T09:16:58.752Z,17.6
2022-09-03T09:17:58.575Z,17.7
2022-09-03T09:18:58.904Z,17.7
2022-09-03T09:19:58.710Z,17.7
2022-09-03T09:20:58.923Z,17.7
2022-09-03T09:21:58.823Z,17.7
2022-09-03T09:22:58.839Z,17.7
2022-09-03T09:23:58.855Z,17.8
2022-09-03T09:24:58.897Z,17.8
2022-09-03T09:25:59.214Z,17.7
2022-09-03T09:26:58.996Z,17.8
2022-09-03T09:27:59.066Z,17.8
2022-09-03T09:28:59.133Z,17.7
2022-09-03T09:29:59.237Z,17.7
2022-09-03T09:30:59.433Z,17.7
2022-09-03T09:31:59.314Z,17.8
2022-09-03T09:32:59.373Z,17.9
2022-09-03T09:34:00.514Z,17.9
2022-09-03T09:34:59.914Z,17.9
2022-09-03T09:35:59.818Z,17.9
2022-09-03T09:36:59.660Z,17.9
2022-09-03T09:38:00.499Z,17.9
2022-09-03T09:38:59.874Z,18
2022-09-03T09:39:59.959Z,18.1
2022-09-03T09:40:59.948Z,18
2022-09-03T09:42:00.205Z,18.1
2022-09-03T09:43:05.043Z,18.2
2022-09-03T09:44:00.142Z,18.3
2022-09-03T09:45:00.212Z,18.3
2022-09-03T09:46:00.550Z,18.3
2022-09-03T09:47:00.345Z,18.4
2022-09-03T09:48:00.377Z,18.5
2022-09-03T09:49:00.438Z,18.4
2022-09-03T09:50:00.519Z,18.4
2022-09-03T09:51:00.741Z,18.5
2022-09-03T09:52:00.833Z,18.4
2022-09-03T09:53:00.739Z,18.4
2022-09-03T09:54:06.224Z,18.4
2022-09-03T09:55:01.230Z,18.3
2022-09-03T09:56:01.621Z,18.3
2022-09-03T09:57:01.819Z,18.3
2022-09-03T09:58:01.104Z,18.3
2022-09-03T09:59:01.386Z,18.2
2022-09-03T10:00:01.257Z,18.4
2022-09-03T10:01:01.471Z,18.6
2022-09-03T10:02:01.398Z,18.6
2022-09-03T10:03:02.323Z,18.6
2022-09-03T10:04:01.627Z,18.6
2022-09-03T10:05:01.613Z,18.6
2022-09-03T10:06:04.136Z,18.7
2022-09-03T10:07:01.801Z,18.7
2022-09-03T10:08:01.838Z,18.6
2022-09-03T10:09:01.944Z,18.7
2022-09-03T10:10:02.149Z,18.7
2022-09-03T10:11:02.423Z,18.7
2022-09-03T10:12:02.189Z,18.7
2022-09-03T10:13:07.174Z,18.7
2022-09-03T10:14:02.915Z,18.8
2022-09-03T10:15:02.401Z,18.7
2022-09-03T10:16:02.472Z,18.6
2022-09-03T10:17:02.482Z,18.7
2022-09-03T10:18:02.545Z,18.8
2022-09-03T10:19:02.613Z,19
2022-09-03T10:20:02.667Z,19
2022-09-03T10:21:02.727Z,19.1
2022-09-03T10:22:02.773Z,19
2022-09-03T10:23:03.177Z,18.9
2022-09-03T10:24:06.674Z,19
2022-09-03T10:25:02.974Z,19.1
2022-09-03T10:26:03.069Z,19.2
2022-09-03T10:27:03.155Z,19.2
2022-09-03T10:28:03.209Z,19.3
2022-09-03T10:29:03.284Z,19.2
2022-09-03T10:30:03.758Z,19.2
2022-09-03T10:31:03.963Z,19.2
2022-09-03T10:32:03.876Z,19.2
2022-09-03T10:33:03.600Z,19.2
2022-09-03T10:34:03.655Z,19.3
2022-09-03T10:35:03.750Z,19.4
2022-09-03T10:36:03.803Z,19.5
2022-09-03T10:37:03.844Z,19.6
2022-09-03T10:38:06.345Z,19.8
2022-09-03T10:39:03.951Z,19.9
2022-09-03T10:40:04.379Z,19.9
2022-09-03T10:41:04.082Z,20
2022-09-03T10:42:05.056Z,20.1
2022-09-03T10:43:04.283Z,20
2022-09-03T10:44:04.285Z,19.8
2022-09-03T10:45:04.380Z,19.7
2022-09-03T10:46:04.512Z,20
2022-09-03T10:47:04.590Z,20.1
2022-09-03T10:48:07.567Z,20.2
2022-09-03T10:49:04.647Z,20.1
2022-09-03T10:50:05.078Z,20.2
2022-09-03T10:51:04.852Z,20.2
2022-09-03T10:52:05.772Z,20.2
2022-09-03T10:53:06.302Z,20.2
2022-09-03T10:54:08.995Z,20.2
2022-09-03T10:55:05.242Z,20.2
2022-09-03T10:56:05.127Z,20.4
2022-09-03T10:57:05.457Z,20.4
2022-09-03T10:58:05.538Z,20.5
2022-09-03T10:59:05.658Z,20.4
2022-09-03T11:00:06.939Z,20.4
2022-09-03T11:01:05.607Z,20.5
2022-09-03T11:02:05.642Z,20.6
2022-09-03T11:03:05.900Z,20.6
2022-09-03T11:04:08.780Z,20.7
2022-09-03T11:05:08.409Z,20.8
2022-09-03T11:06:05.838Z,20.8
2022-09-03T11:07:05.918Z,20.9
2022-09-03T11:08:11.283Z,20.9
2022-09-03T11:09:06.789Z,21
2022-09-03T11:10:06.141Z,21.1
2022-09-03T11:11:06.188Z,21.1
2022-09-03T11:12:06.482Z,21
2022-09-03T11:13:06.889Z,21
2022-09-03T11:14:06.615Z,21
2022-09-03T11:15:06.828Z,21
2022-09-03T11:16:09.725Z,21.2
2022-09-03T11:17:06.590Z,21.4
2022-09-03T11:18:11.649Z,21.6
2022-09-03T11:19:06.939Z,21.8
2022-09-03T11:20:07.821Z,21.8
2022-09-03T11:21:11.906Z,21.7
2022-09-03T11:22:37.585Z,21.8
2022-09-03T11:23:34.737Z,21.7
2022-09-03T11:24:07.613Z,21.6
2022-09-03T11:25:12.166Z,21.5
2022-09-03T11:26:07.370Z,21.5
2022-09-03T11:27:12.786Z,21.5
2022-09-03T11:28:11.197Z,21.7
2022-09-03T11:29:07.938Z,21.6
2022-09-03T11:30:07.820Z,21.8
2022-09-03T11:31:07.740Z,21.8
2022-09-03T11:32:07.742Z,21.8
2022-09-03T11:33:08.323Z,21.9
2022-09-03T11:34:08.301Z,22.4
2022-09-03T11:35:08.205Z,22.6
2022-09-03T11:36:08.147Z,22.7
2022-09-03T11:37:08.652Z,22.8
2022-09-03T11:38:08.598Z,23.1
2022-09-03T11:39:08.816Z,23.1
2022-09-03T11:40:08.310Z,23.4
2022-09-03T11:41:09.160Z,23.7
2022-09-03T11:42:08.738Z,23.7
2022-09-03T11:43:08.591Z,23.5
2022-09-03T11:44:08.878Z,23.6
2022-09-03T11:45:09.123Z,23.9
2022-09-03T11:46:08.741Z,23.3
2022-09-03T11:47:08.884Z,23
2022-09-03T11:48:09.145Z,23.2
2022-09-03T12:26:40.650Z,23.7
2022-09-03T12:27:40.707Z,24.2
2022-09-03T12:28:41.535Z,24.2
2022-09-03T12:29:41.216Z,24.1
2022-09-03T12:30:46.144Z,24.3
2022-09-03T12:31:43.065Z,24.5
2022-09-03T12:32:41.439Z,24.5
2022-09-03T12:33:48.061Z,24.4
2022-09-03T12:34:42.294Z,24.2
2022-09-03T12:35:58.475Z,24.1
2022-09-03T12:36:41.395Z,24.4
2022-09-03T12:39:07.900Z,24.3
2022-09-03T12:40:09.074Z,24.5
2022-09-03T12:41:23.255Z,24.8
2022-09-03T12:41:41.780Z,25
2022-09-03T12:42:41.746Z,25
2022-09-03T12:43:50.477Z,25.1
2022-09-03T12:44:41.901Z,25.1
2022-09-03T12:46:42.062Z,25
2022-09-03T12:47:42.229Z,24.9
2022-09-03T12:48:43.956Z,24.6
2022-09-03T12:49:42.719Z,24.8
2022-09-03T12:50:49.308Z,24.9
2022-09-03T12:51:54.033Z,24.7
2022-09-03T12:52:42.346Z,24.9
2022-09-03T12:53:44.498Z,24.8
2022-09-03T12:54:42.980Z,24.6
2022-09-03T12:55:42.641Z,24.8
2022-09-03T12:56:47.589Z,24.9
2022-09-03T12:57:56.986Z,25
2022-09-03T12:59:00.932Z,25.1
2022-09-03T12:59:48.341Z,25.2
2022-09-03T13:00:54.431Z,25
2022-09-03T13:02:33.598Z,25
2022-09-03T13:03:06.267Z,25.1
2022-09-03T13:03:43.266Z,25
2022-09-03T13:04:43.265Z,24.9
2022-09-03T13:05:43.382Z,25.2
2022-09-03T13:06:44.426Z,25.2
2022-09-03T13:07:44.675Z,25.2
2022-09-03T13:08:43.448Z,25.3
2022-09-03T13:09:45.413Z,25.5
2022-09-03T13:10:48.616Z,25.7
2022-09-03T13:11:43.706Z,25.3
2022-09-03T13:12:44.744Z,25.6
2022-09-03T13:13:43.998Z,25.8
2022-09-03T13:14:43.857Z,25.6
2022-09-03T13:15:43.964Z,25
2022-09-03T13:16:44.287Z,25.1
2022-09-03T13:17:44.081Z,25
2022-09-03T13:18:44.333Z,25.1
2022-09-03T13:19:44.235Z,25.2
2022-09-03T13:20:44.412Z,25.3
2022-09-03T13:21:44.611Z,25.1
2022-09-03T13:22:45.767Z,25.1
2022-09-03T13:23:44.496Z,25.2
2022-09-03T13:24:44.709Z,25.3
2022-09-03T13:25:44.810Z,25.3
2022-09-03T13:26:44.721Z,25.3
2022-09-03T13:27:44.800Z,25.2
2022-09-03T13:28:54.798Z,25.5
2022-09-03T13:29:45.617Z,25.4
2022-09-03T13:30:45.024Z,25.4
2022-09-03T13:31:45.759Z,25.4
2022-09-03T13:32:45.248Z,25.5
2022-09-03T13:33:46.880Z,25.9
2022-09-03T13:34:45.636Z,26
2022-09-03T13:35:45.462Z,25.8
2022-09-03T13:36:46.778Z,25.7
2022-09-03T13:37:45.438Z,25.8
2022-09-03T13:38:45.773Z,25.9
2022-09-03T13:39:47.012Z,25.9
2022-09-03T13:40:45.935Z,25.9
2022-09-03T13:41:45.770Z,25.8
2022-09-03T13:42:45.618Z,25.4
2022-09-03T13:43:45.754Z,25.7
2022-09-03T13:44:45.789Z,25.7
2022-09-03T13:45:46.867Z,25.7
2022-09-03T13:46:51.844Z,25.6
2022-09-03T13:47:45.928Z,25.5
2022-09-03T13:48:45.932Z,25.4
2022-09-03T13:49:45.971Z,25
2022-09-03T13:50:46.312Z,24.8
2022-09-03T13:51:46.224Z,24.7
2022-09-03T13:52:46.116Z,24.6
2022-09-03T13:53:46.281Z,24.4
2022-09-03T13:54:49.762Z,24.4
2022-09-03T13:55:46.323Z,24.3
2022-09-03T13:57:05.849Z,24.8
2022-09-03T13:58:06.173Z,25
2022-09-03T13:59:06.203Z,25.1
2022-09-03T14:00:06.024Z,25.3
2022-09-03T14:01:07.121Z,25.4
2022-09-03T14:02:06.096Z,25.3
2022-09-03T14:03:11.013Z,25.4
2022-09-03T14:04:06.167Z,25.7
2022-09-03T14:05:06.168Z,25.9
2022-09-03T14:06:06.867Z,26
2022-09-03T14:07:06.245Z,25.9
2022-09-03T14:08:06.299Z,26
2022-09-03T14:09:06.370Z,26.2
2022-09-03T14:10:06.975Z,26.1
2022-09-03T14:11:06.479Z,26.3
2022-09-03T14:12:06.577Z,26.3